createdAt,value
2019-04-23T10:24:20.997Z,23.20
2019-04-23T10:27:08.307Z,23.50
2019-04-23T10:29:56.141Z,23.50
2019-04-23T10:32:43.187Z,23.60
2019-04-23T10:35:41.556Z,24.40
2019-04-23T10:38:20.286Z,24.50
2019-04-23T10:41:06.405Z,25.10
2019-04-23T10:43:58.579Z,25.00
2019-04-23T10:47:30.473Z,25.80
2019-04-23T10:50:57.684Z,26.10
2019-04-23T10:56:31.058Z,27.10
2019-04-23T10:59:34.186Z,27.40
2019-04-23T11:02:35.026Z,27.00
2019-04-23T11:05:08.848Z,27.50
2019-04-23T11:07:43.409Z,27.50
2019-04-23T11:10:46.333Z,27.40
2019-04-23T11:13:37.897Z,27.80
2019-04-23T11:19:15.126Z,27.10
2019-04-23T11:22:20.218Z,28.10
2019-04-23T11:24:50.218Z,28.30
2019-04-23T11:38:54.577Z,29.40
2019-04-23T11:41:43.250Z,29.60
2019-04-23T11:47:42.471Z,29.30
2019-04-23T11:50:09.598Z,30.10
2019-04-23T11:53:01.168Z,30.20
2019-04-23T11:58:28.406Z,30.00
2019-04-23T12:01:42.249Z,30.80
2019-04-23T12:07:19.016Z,30.80
2019-04-23T12:13:03.318Z,30.00
2019-04-23T12:15:47.921Z,30.00
2019-04-23T12:18:43.252Z,29.60
2019-04-23T12:21:28.395Z,28.50
2019-04-23T12:24:28.181Z,29.00
2019-04-23T12:27:09.646Z,29.00
2019-04-23T12:35:22.487Z,29.30
2019-04-23T12:38:21.904Z,29.60
2019-04-23T12:41:24.280Z,28.80
2019-04-23T12:43:50.463Z,28.70
2019-04-23T12:46:46.145Z,29.00
2019-04-23T12:49:44.409Z,28.70
2019-04-23T12:52:19.044Z,28.50
2019-04-23T12:57:57.381Z,29.20
2019-04-23T13:03:30.205Z,30.90
2019-04-23T13:06:11.773Z,31.60
2019-04-23T13:09:01.461Z,31.50
2019-04-23T13:11:52.982Z,31.30
2019-04-23T13:14:49.550Z,30.90
2019-04-23T13:17:42.565Z,30.40
2019-04-23T13:20:20.189Z,29.90
2019-04-23T13:26:04.046Z,29.90
2019-04-23T13:28:51.018Z,29.70
2019-04-23T13:31:42.244Z,29.60
2019-04-23T13:34:41.179Z,29.50
2019-04-23T13:37:29.380Z,28.50
2019-04-23T13:40:12.896Z,28.20
2019-04-23T13:43:00.950Z,28.00
2019-04-23T13:45:59.229Z,26.30
2019-04-23T13:48:24.751Z,24.70
2019-04-23T13:57:34.763Z,24.20
2019-04-23T14:05:27.015Z,22.70
2019-04-23T14:08:43.290Z,22.20
2019-04-23T14:11:02.221Z,22.00
2019-04-23T14:19:16.369Z,22.70
2019-04-23T14:22:31.299Z,21.80
2019-04-23T14:27:56.651Z,21.40
2019-04-23T14:36:14.039Z,21.20
2019-04-23T14:39:05.767Z,21.30
2019-04-23T14:41:56.578Z,21.20
2019-04-23T14:44:44.436Z,21.40
2019-04-23T14:53:20.261Z,22.90
2019-04-23T14:59:01.645Z,25.90
2019-04-23T15:01:54.998Z,25.90
2019-04-23T15:04:31.725Z,25.80
2019-04-23T15:07:25.921Z,26.00
2019-04-23T15:10:18.405Z,25.30
2019-04-23T15:15:44.201Z,24.30
2019-04-23T15:19:10.787Z,25.00
2019-04-23T15:24:52.333Z,24.20
2019-04-23T15:28:03.606Z,23.60
2019-04-23T15:30:07.008Z,23.20
2019-04-23T15:33:23.677Z,23.20
2019-04-23T15:41:38.216Z,23.40
2019-04-23T15:44:23.034Z,23.50
2019-04-23T15:47:10.830Z,23.20
2019-04-23T15:50:03.201Z,23.60
2019-04-23T15:55:28.290Z,23.60
2019-04-23T16:01:29.328Z,24.50
2019-04-23T16:03:47.249Z,23.50
2019-04-23T16:06:34.804Z,24.40
2019-04-23T16:09:54.071Z,24.90
2019-04-23T16:12:31.577Z,23.90
2019-04-23T16:15:22.039Z,23.10
2019-04-23T16:18:31.279Z,23.10
2019-04-23T16:21:27.299Z,23.60
2019-04-23T16:24:01.137Z,23.50
2019-04-23T16:26:47.421Z,23.60
2019-04-23T16:29:44.453Z,23.90
2019-04-23T16:32:28.381Z,23.60
2019-04-23T16:35:18.226Z,24.10
2019-04-23T16:38:21.349Z,24.00
2019-04-23T16:40:47.550Z,23.70
2019-04-23T16:43:33.731Z,23.20
2019-04-23T16:46:44.102Z,22.80
2019-04-23T16:52:01.285Z,22.10
2019-04-23T17:00:31.825Z,21.20
2019-04-23T17:03:21.116Z,21.10
2019-04-23T17:06:06.924Z,20.10
